Time;durP1;ratioP1;P1;durP2;ratioP2;P2;SDS_P1;SDS_P2;PMS_P1;PMS_P2;Temp;Humidity;BMP_temperature;BMP_pressure;BME280_temperature;BME280_humidity;BME280_pressure;Samples;Min_cycle;Max_cycle;Signal;HPM_P1;HPM_P2
2023/02/07 00:01:24;;;;;;;32.55;15.23;;;-0.30;99.90;;;;;;5056325;28;20036;-68
2023/02/07 00:03:51;;;;;;;24.45;13.85;;;-0.20;99.90;;;;;;5056170;28;20031;-68
2023/02/07 00:06:21;;;;;;;24.45;13.85;;;-0.20;99.90;;;;;;5056095;28;20021;-68
2023/02/07 00:08:48;;;;;;;26.83;13.65;;;-0.30;99.90;;;;;;5056051;28;20025;-68
2023/02/07 00:11:16;;;;;;;27.88;13.45;;;-0.40;99.90;;;;;;5056013;28;20033;-68
2023/02/07 00:13:43;;;;;;;30.15;14.18;;;-0.40;99.90;;;;;;5055978;28;20036;-68
2023/02/07 00:16:10;;;;;;;31.60;14.00;;;-0.40;99.90;;;;;;5056063;28;20049;-68
2023/02/07 00:18:35;;;;;;;28.55;15.35;;;-0.40;99.90;;;;;;5055704;28;20052;-68
2023/02/07 00:23:41;;;;;;;29.73;14.60;;;-0.40;99.90;;;;;;5090923;28;20435;-67
2023/02/07 00:26:08;;;;;;;32.92;14.95;;;-0.50;99.90;;;;;;5090830;28;20482;-67
2023/02/07 00:28:34;;;;;;;30.52;14.95;;;-0.50;99.90;;;;;;5090758;28;20066;-67
2023/02/07 00:31:19;;;;;;;28.00;14.60;;;-0.40;99.90;;;;;;5090734;28;20020;-67
2023/02/07 00:33:46;;;;;;;30.10;14.90;;;-0.40;99.90;;;;;;5090618;28;20060;-67
2023/02/07 00:36:15;;;;;;;30.13;14.73;;;-0.50;99.90;;;;;;5090487;28;20032;-66
2023/02/07 00:38:41;;;;;;;24.25;12.70;;;-0.60;99.90;;;;;;5090494;28;20035;-67
2023/02/07 00:41:07;;;;;;;29.63;15.07;;;-0.60;99.90;;;;;;5090485;28;20111;-67
2023/02/07 00:43:33;;;;;;;33.85;15.73;;;-0.70;99.90;;;;;;5090373;28;20040;-67
2023/02/07 00:46:01;;;;;;;33.08;15.30;;;-0.60;99.90;;;;;;5090691;28;20070;-67
2023/02/07 00:48:28;;;;;;;30.48;15.23;;;-0.60;99.90;;;;;;5090411;28;20025;-67
2023/02/07 00:50:54;;;;;;;30.73;14.18;;;-0.80;99.90;;;;;;5090472;28;20031;-67
2023/02/07 00:53:20;;;;;;;31.35;15.27;;;-0.80;99.90;;;;;;5090219;28;20031;-67
2023/02/07 00:55:46;;;;;;;28.83;15.18;;;-0.80;99.90;;;;;;5090348;28;20024;-67
2023/02/07 00:58:11;;;;;;;27.73;14.45;;;-0.90;99.90;;;;;;5090161;28;20079;-67
2023/02/07 01:00:37;;;;;;;30.73;15.18;;;-0.90;99.90;;;;;;5090071;28;20103;-67
2023/02/07 01:03:02;;;;;;;29.90;14.90;;;-0.90;99.90;;;;;;5090049;28;20107;-67
2023/02/07 01:05:28;;;;;;;32.53;15.77;;;-1.00;99.90;;;;;;5090125;28;20024;-67
2023/02/07 01:07:53;;;;;;;36.67;15.45;;;-0.90;99.90;;;;;;5089969;28;20028;-67
2023/02/07 01:10:19;;;;;;;31.38;16.55;;;-1.00;99.90;;;;;;5089907;28;20020;-67
2023/02/07 01:12:45;;;;;;;31.50;15.10;;;-1.10;99.90;;;;;;5090103;28;20035;-67
2023/02/07 01:15:11;;;;;;;31.10;16.20;;;-1.10;99.90;;;;;;5089896;28;20546;-67
2023/02/07 01:17:36;;;;;;;29.10;14.82;;;-1.10;99.90;;;;;;5089791;28;20035;-66
2023/02/07 01:20:02;;;;;;;32.28;15.85;;;-1.20;99.90;;;;;;5089834;28;20040;-67
2023/02/07 01:22:28;;;;;;;33.70;15.32;;;-1.10;99.90;;;;;;5089449;28;20045;-66
2023/02/07 01:24:54;;;;;;;32.22;15.32;;;-1.10;99.90;;;;;;5089574;28;20032;-66
2023/02/07 01:27:21;;;;;;;33.55;15.18;;;-1.10;99.90;;;;;;5089612;28;20111;-67
2023/02/07 01:29:47;;;;;;;34.05;16.42;;;-1.20;99.90;;;;;;5089532;28;20112;-67
2023/02/07 01:32:12;;;;;;;29.45;15.80;;;-1.30;99.90;;;;;;5089304;28;20128;-67
2023/02/07 01:34:38;;;;;;;31.88;15.23;;;-1.30;99.90;;;;;;5078210;28;20025;-67
2023/02/07 01:37:04;;;;;;;31.58;15.75;;;-1.10;99.90;;;;;;5075894;28;20111;-67
2023/02/07 01:39:29;;;;;;;28.95;15.15;;;-1.10;99.90;;;;;;5076245;28;20535;-67
2023/02/07 01:41:55;;;;;;;33.20;15.85;;;-1.20;99.90;;;;;;5075718;28;20032;-67
2023/02/07 01:44:26;;;;;;;34.47;15.77;;;-1.10;99.90;;;;;;5075803;28;20039;-67
2023/02/07 01:46:54;;;;;;;32.75;15.80;;;-1.10;99.90;;;;;;5075759;28;20028;-67
2023/02/07 01:49:27;;;;;;;28.10;15.65;;;-1.10;99.90;;;;;;5075716;28;20432;-67
2023/02/07 01:52:09;;;;;;;27.77;14.80;;;-1.00;99.90;;;;;;5075882;28;20028;-67
2023/02/07 01:54:35;;;;;;;33.72;15.80;;;-1.10;99.90;;;;;;5074262;28;20033;-66
2023/02/07 01:57:06;;;;;;;32.88;15.70;;;-1.10;99.90;;;;;;5075777;28;20047;-67
2023/02/07 01:59:34;;;;;;;31.38;15.02;;;-1.10;99.90;;;;;;5075790;28;20029;-66
2023/02/07 02:02:03;;;;;;;31.55;16.13;;;-1.10;99.90;;;;;;5075572;28;20517;-66
2023/02/07 02:04:29;;;;;;;31.63;15.73;;;-1.10;99.90;;;;;;5075536;28;20114;-67
2023/02/07 02:06:55;;;;;;;38.95;17.10;;;-1.10;99.90;;;;;;5075344;28;20056;-66
2023/02/07 02:09:21;;;;;;;30.58;16.25;;;-1.00;99.90;;;;;;5075861;28;20451;-66
2023/02/07 02:12:21;;;;;;;35.80;15.88;;;-1.20;99.90;;;;;;5075279;28;20548;-67
2023/02/07 02:15:26;;;;;;;34.00;15.60;;;-1.20;99.90;;;;;;5075064;28;20551;-67
2023/02/07 02:21:10;;;;;;;32.28;16.48;;;-1.20;99.90;;;;;;5111219;27;20400;-67
2023/02/07 02:23:51;;;;;;;30.48;15.23;;;-1.40;99.90;;;;;;5111009;28;20062;-67
2023/02/07 02:26:48;;;;;;;26.77;14.65;;;-1.40;99.90;;;;;;5111013;28;20104;-67
2023/02/07 02:29:44;;;;;;;33.55;15.07;;;-1.50;99.90;;;;;;5111123;28;20389;-67
2023/02/07 02:32:50;;;;;;;30.85;15.00;;;-1.60;99.90;;;;;;5110766;28;20031;-66
2023/02/07 02:35:22;;;;;;;33.50;15.40;;;-1.60;99.90;;;;;;5110696;28;20109;-67
2023/02/07 02:38:27;;;;;;;27.67;14.02;;;-1.60;99.90;;;;;;5111076;28;20035;-66
2023/02/07 02:41:02;;;;;;;30.83;15.75;;;-1.80;99.90;;;;;;5110617;28;20555;-67
2023/02/07 02:43:43;;;;;;;29.05;15.30;;;-1.90;99.90;;;;;;5110944;28;20024;-67
2023/02/07 02:46:16;;;;;;;31.38;15.88;;;-2.00;99.90;;;;;;5111084;28;20419;-66
2023/02/07 02:48:43;;;;;;;28.10;14.57;;;-2.10;99.90;;;;;;5110827;28;20039;-67
2023/02/07 02:51:09;;;;;;;31.30;14.80;;;-2.20;99.90;;;;;;5110582;28;20508;-67
2023/02/07 02:53:34;;;;;;;30.45;15.52;;;-2.20;99.90;;;;;;5110708;28;20024;-67
2023/02/07 02:56:27;;;;;;;32.03;15.48;;;-2.20;99.90;;;;;;5110782;28;20028;-67
2023/02/07 02:59:16;;;;;;;29.10;14.63;;;-2.30;99.90;;;;;;5110499;28;20505;-67
2023/02/07 03:02:15;;;;;;;28.13;14.90;;;-2.40;99.90;;;;;;5110432;28;20122;-67
2023/02/07 03:07:50;;;;;;;27.38;14.57;;;-2.50;99.90;;;;;;5111229;27;20380;-67
2023/02/07 03:10:43;;;;;;;36.03;15.98;;;-2.60;99.90;;;;;;5110908;28;20057;-67
2023/02/07 03:13:22;;;;;;;31.30;16.13;;;-2.60;99.90;;;;;;5111260;28;20051;-67
2023/02/07 03:16:22;;;;;;;32.88;16.63;;;-2.40;99.90;;;;;;5110963;28;20024;-67
2023/02/07 03:19:11;;;;;;;37.67;17.15;;;-2.40;99.90;;;;;;5111050;28;20131;-67
2023/02/07 03:21:59;;;;;;;29.45;15.35;;;-2.60;99.90;;;;;;5110720;28;20027;-67
2023/02/07 03:24:33;;;;;;;33.40;16.70;;;-2.60;99.90;;;;;;5110700;28;20472;-67
2023/02/07 03:27:04;;;;;;;34.83;17.33;;;-2.50;99.90;;;;;;5110785;28;20028;-67
2023/02/07 03:29:30;;;;;;;34.08;16.33;;;-2.60;99.90;;;;;;5110999;28;20097;-67
2023/02/07 03:31:59;;;;;;;30.13;15.55;;;-2.70;99.90;;;;;;5110709;28;20384;-67
2023/02/07 03:34:35;;;;;;;35.67;17.38;;;-2.80;99.90;;;;;;5110316;28;20431;-67
2023/02/07 03:37:25;;;;;;;33.13;16.67;;;-2.90;99.90;;;;;;5110742;28;20371;-67
2023/02/07 03:39:51;;;;;;;31.55;16.42;;;-2.90;99.90;;;;;;5109572;28;20031;-67
2023/02/07 03:42:47;;;;;;;37.00;18.48;;;-2.90;99.90;;;;;;5110281;28;20047;-67
2023/02/07 03:45:16;;;;;;;45.20;21.05;;;-2.90;99.90;;;;;;5110455;28;20477;-67
2023/02/07 03:47:41;;;;;;;37.80;18.23;;;-2.50;99.90;;;;;;5110423;28;20031;-67
2023/02/07 03:50:07;;;;;;;46.08;20.55;;;-2.60;99.90;;;;;;5110216;28;20024;-67
2023/02/07 03:52:33;;;;;;;37.38;18.77;;;-2.60;99.90;;;;;;5110488;28;20028;-67
2023/02/07 03:54:58;;;;;;;39.17;19.70;;;-2.70;99.90;;;;;;5110549;28;20028;-67
2023/02/07 03:57:24;;;;;;;40.83;20.20;;;-2.80;99.90;;;;;;5110355;28;20106;-67
2023/02/07 03:59:49;;;;;;;47.38;21.98;;;-2.70;99.90;;;;;;5110296;28;20112;-67
2023/02/07 04:02:15;;;;;;;41.60;21.75;;;-2.40;99.90;;;;;;5109930;28;20024;-67
2023/02/07 04:04:40;;;;;;;46.55;23.27;;;-2.10;99.90;;;;;;5110018;28;20024;-67
2023/02/07 04:07:06;;;;;;;47.42;23.33;;;-2.10;99.90;;;;;;5109589;28;20048;-67
2023/02/07 04:09:32;;;;;;;48.92;22.38;;;-2.10;99.90;;;;;;5110283;28;20049;-67
2023/02/07 04:11:57;;;;;;;45.38;22.80;;;-2.10;99.90;;;;;;5110021;28;20062;-67
2023/02/07 04:14:23;;;;;;;47.88;22.58;;;-2.20;99.90;;;;;;5109598;28;20474;-67
2023/02/07 04:16:48;;;;;;;40.50;20.83;;;-2.20;99.90;;;;;;5106688;28;20032;-67
2023/02/07 04:19:15;;;;;;;44.03;21.38;;;-2.30;99.90;;;;;;5096023;28;20111;-67
2023/02/07 04:21:41;;;;;;;37.10;19.60;;;-2.50;99.90;;;;;;5095915;28;20042;-69
2023/02/07 04:24:06;;;;;;;41.47;21.92;;;-2.60;99.90;;;;;;5096156;28;20067;-67
2023/02/07 04:26:32;;;;;;;39.78;20.08;;;-2.80;99.90;;;;;;5096135;28;20060;-67
2023/02/07 04:28:57;;;;;;;38.85;19.60;;;-2.90;99.90;;;;;;5096116;28;20389;-67
2023/02/07 04:31:23;;;;;;;33.88;17.48;;;-3.00;99.90;;;;;;5095906;28;20032;-67
2023/02/07 04:33:48;;;;;;;38.08;19.17;;;-3.10;99.90;;;;;;5095928;28;20108;-67
2023/02/07 04:36:14;;;;;;;40.13;18.55;;;-3.20;99.90;;;;;;5096031;28;20038;-67
2023/02/07 04:38:40;;;;;;;40.70;20.00;;;-3.20;99.90;;;;;;5096012;28;20043;-67
2023/02/07 04:41:06;;;;;;;38.85;19.63;;;-3.30;99.90;;;;;;5095996;28;20534;-67
2023/02/07 04:43:34;;;;;;;38.28;19.55;;;-3.30;99.90;;;;;;5096018;28;20057;-67
2023/02/07 04:46:01;;;;;;;34.38;18.88;;;-3.30;99.90;;;;;;5095732;28;20051;-67
2023/02/07 04:48:26;;;;;;;41.47;21.08;;;-3.30;99.90;;;;;;5095425;28;20466;-67
2023/02/07 04:50:52;;;;;;;39.95;20.23;;;-3.20;99.90;;;;;;5095357;28;20023;-67
2023/02/07 04:53:18;;;;;;;40.05;20.63;;;-3.30;99.90;;;;;;5095775;28;20023;-67
2023/02/07 04:55:48;;;;;;;38.28;19.70;;;-3.30;99.90;;;;;;5095550;28;20032;-67
2023/02/07 04:58:14;;;;;;;46.75;20.77;;;-3.40;99.90;;;;;;5095213;28;20024;-68
2023/02/07 05:00:40;;;;;;;40.67;19.50;;;-3.40;99.90;;;;;;5095411;28;20032;-67
2023/02/07 05:03:05;;;;;;;46.58;22.10;;;-3.50;99.90;;;;;;5095397;28;20027;-67
2023/02/07 05:05:31;;;;;;;45.17;20.60;;;-3.50;99.90;;;;;;5095232;28;20055;-67
2023/02/07 05:07:56;;;;;;;46.28;20.42;;;-3.50;99.90;;;;;;5095409;28;20024;-67
2023/02/07 05:10:22;;;;;;;42.95;21.52;;;-3.50;99.90;;;;;;5095406;28;20386;-67
2023/02/07 05:12:48;;;;;;;43.08;20.80;;;-3.50;99.90;;;;;;5094877;28;20028;-67
2023/02/07 05:15:13;;;;;;;43.95;21.05;;;-3.50;99.90;;;;;;5095307;28;20032;-67
2023/02/07 05:17:39;;;;;;;36.85;18.73;;;-3.50;99.90;;;;;;5095108;28;20538;-67
2023/02/07 05:20:06;;;;;;;40.63;18.50;;;-3.60;99.90;;;;;;5095243;28;20024;-67
2023/02/07 05:22:32;;;;;;;42.63;20.30;;;-3.60;99.90;;;;;;5095204;28;20069;-67
2023/02/07 05:24:57;;;;;;;45.17;21.35;;;-3.70;99.90;;;;;;5094937;28;20028;-67
2023/02/07 05:27:23;;;;;;;39.95;20.33;;;-3.70;99.90;;;;;;5095081;28;20535;-67
2023/02/07 05:29:48;;;;;;;44.50;19.55;;;-3.70;99.90;;;;;;5093825;28;20028;-67
2023/02/07 05:35:01;;;;;;;42.00;20.80;;;-3.60;99.90;;;;;;5094544;28;20028;-67
2023/02/07 05:37:26;;;;;;;45.25;20.42;;;-3.70;99.90;;;;;;5094769;28;20024;-67
2023/02/07 05:39:52;;;;;;;40.20;19.95;;;-3.70;99.90;;;;;;5094762;28;20024;-67
2023/02/07 05:42:17;;;;;;;33.75;18.42;;;-3.70;99.90;;;;;;5094585;28;20027;-67
2023/02/07 05:44:44;;;;;;;41.55;20.75;;;-3.70;99.90;;;;;;5094284;28;20469;-67
2023/02/07 05:47:09;;;;;;;40.67;20.35;;;-3.70;99.90;;;;;;5094190;28;20131;-67
2023/02/07 05:49:36;;;;;;;46.92;21.50;;;-3.70;99.90;;;;;;5094533;28;20129;-67
2023/02/07 05:52:01;;;;;;;49.45;21.65;;;-3.60;99.90;;;;;;5094568;28;20023;-67
2023/02/07 05:54:27;;;;;;;43.15;21.10;;;-3.60;99.90;;;;;;5094489;28;20409;-67
2023/02/07 05:56:53;;;;;;;42.03;20.90;;;-3.70;99.90;;;;;;5094486;28;20016;-67
2023/02/07 05:59:18;;;;;;;45.17;21.67;;;-3.70;99.90;;;;;;5094508;28;20034;-67
2023/02/07 06:01:44;;;;;;;45.75;21.15;;;-3.70;99.90;;;;;;5094347;28;20036;-67
2023/02/07 06:04:09;;;;;;;45.20;20.90;;;-3.70;99.90;;;;;;5094313;28;20111;-67
2023/02/07 06:06:35;;;;;;;50.13;21.40;;;-3.80;99.90;;;;;;5094080;28;20134;-67
2023/02/07 06:09:00;;;;;;;47.13;20.25;;;-3.80;99.90;;;;;;5094315;28;20032;-67
2023/02/07 06:11:26;;;;;;;53.22;23.13;;;-3.80;99.90;;;;;;5093807;28;20024;-67
2023/02/07 06:13:51;;;;;;;50.30;22.55;;;-3.80;99.90;;;;;;5094163;28;20020;-67
2023/02/07 06:16:17;;;;;;;48.30;23.98;;;-3.70;99.90;;;;;;5093889;28;20028;-67
2023/02/07 06:18:43;;;;;;;44.65;21.10;;;-3.70;99.90;;;;;;5094143;28;20062;-67
2023/02/07 06:21:08;;;;;;;49.97;23.13;;;-3.80;99.90;;;;;;5093797;28;20496;-67
2023/02/07 06:23:34;;;;;;;47.90;23.27;;;-3.80;99.90;;;;;;5093882;28;20089;-67
2023/02/07 06:25:59;;;;;;;41.42;21.15;;;-3.80;99.90;;;;;;5093732;28;20040;-67
2023/02/07 06:28:25;;;;;;;46.50;22.75;;;-3.80;99.90;;;;;;5093745;28;20020;-67
2023/02/07 06:30:52;;;;;;;51.28;24.13;;;-3.90;99.90;;;;;;5093560;28;20024;-67
2023/02/07 06:33:17;;;;;;;45.17;22.98;;;-3.90;99.90;;;;;;5093553;28;20085;-67
2023/02/07 06:35:46;;;;;;;48.90;22.27;;;-3.90;99.90;;;;;;5093140;28;20031;-68
2023/02/07 06:38:14;;;;;;;51.60;24.10;;;-4.00;99.90;;;;;;5093540;28;20169;-67
2023/02/07 06:40:39;;;;;;;51.40;24.60;;;-4.00;99.90;;;;;;5093151;28;20024;-67
2023/02/07 06:43:05;;;;;;;49.90;23.80;;;-4.00;99.90;;;;;;5093619;28;20035;-67
2023/02/07 06:45:31;;;;;;;50.92;24.52;;;-4.00;99.90;;;;;;5093524;28;20028;-67
2023/02/07 06:47:56;;;;;;;55.00;25.63;;;-4.00;99.90;;;;;;5093201;28;20022;-67
2023/02/07 06:50:22;;;;;;;52.70;23.60;;;-4.00;99.90;;;;;;5093267;28;20508;-67
2023/02/07 06:52:47;;;;;;;48.58;23.27;;;-4.00;99.90;;;;;;5093537;28;20024;-67
2023/02/07 06:55:13;;;;;;;46.38;23.02;;;-4.00;99.90;;;;;;5093492;28;20028;-67
2023/02/07 06:57:38;;;;;;;49.40;24.58;;;-4.00;99.90;;;;;;5093455;28;20488;-68
2023/02/07 07:00:04;;;;;;;55.30;25.02;;;-3.90;99.90;;;;;;5092582;28;20024;-67
2023/02/07 07:02:30;;;;;;;46.17;24.70;;;-3.90;99.90;;;;;;5093443;28;20039;-67
2023/02/07 07:04:55;;;;;;;45.28;23.25;;;-3.90;99.90;;;;;;5093097;28;20028;-68
2023/02/07 07:07:21;;;;;;;41.17;21.50;;;-3.80;99.90;;;;;;5092902;28;20020;-67
2023/02/07 07:09:47;;;;;;;44.28;22.60;;;-3.70;99.90;;;;;;5093134;28;20028;-68
2023/02/07 07:12:13;;;;;;;44.30;22.48;;;-3.70;99.90;;;;;;5093476;28;20165;-68
2023/02/07 07:14:39;;;;;;;49.40;23.25;;;-3.70;99.90;;;;;;5093428;28;20093;-68
2023/02/07 07:17:04;;;;;;;48.53;23.77;;;-3.60;99.90;;;;;;5093302;28;20076;-67
2023/02/07 07:19:30;;;;;;;49.78;24.92;;;-3.50;99.90;;;;;;5092907;28;20122;-68
2023/02/07 07:21:55;;;;;;;60.92;26.45;;;-3.40;99.90;;;;;;5092908;28;20390;-68
2023/02/07 07:24:21;;;;;;;59.35;28.02;;;-2.90;99.90;;;;;;5093317;28;20032;-68
2023/02/07 07:26:47;;;;;;;53.05;27.73;;;;;;;;;;5094690;28;20182;-68
2023/02/07 07:29:13;;;;;;;60.10;29.38;;;-1.80;99.90;;;;;;5091967;28;20028;-68
2023/02/07 07:31:38;;;;;;;54.53;27.50;;;-1.20;99.90;;;;;;5089753;28;20024;-68
2023/02/07 07:34:04;;;;;;;55.35;26.95;;;-1.20;99.90;;;;;;5092858;28;20052;-68
2023/02/07 07:36:29;;;;;;;49.67;28.08;;;-0.70;99.90;;;;;;5092869;28;20067;-68
2023/02/07 07:38:55;;;;;;;51.45;25.70;;;-0.70;99.90;;;;;;5090675;28;20100;-68
2023/02/07 07:41:20;;;;;;;46.28;24.98;;;-0.30;99.90;;;;;;5088077;28;20112;-68
2023/02/07 07:43:46;;;;;;;48.97;25.67;;;0.30;99.90;;;;;;5087754;28;20036;-68
2023/02/07 07:46:12;;;;;;;45.13;25.95;;;0.50;99.90;;;;;;5092840;28;20078;-68
2023/02/07 07:48:38;;;;;;;34.63;20.90;;;1.50;99.90;;;;;;5089921;28;20553;-69
2023/02/07 07:51:03;;;;;;;27.90;17.23;;;2.60;99.90;;;;;;5088602;28;20095;-69
2023/02/07 07:53:29;;;;;;;23.02;16.15;;;2.70;99.90;;;;;;5093028;28;20107;-69
2023/02/07 07:55:56;;;;;;;21.40;14.73;;;3.40;99.90;;;;;;5090812;28;20106;-69
2023/02/07 07:58:23;;;;;;;19.35;13.60;;;4.40;99.90;;;;;;5090452;28;20032;-69
2023/02/07 08:00:49;;;;;;;18.00;12.32;;;5.00;99.90;;;;;;5089273;28;20067;-69
2023/02/07 08:03:16;;;;;;;17.13;12.55;;;5.70;99.90;;;;;;5094460;28;20074;-69
2023/02/07 08:05:43;;;;;;;15.98;11.60;;;5.90;99.90;;;;;;5092350;28;20149;-66
2023/02/07 08:08:08;;;;;;;17.73;11.50;;;6.30;99.90;;;;;;5090872;28;20043;-67
2023/02/07 08:10:34;;;;;;;14.57;10.85;;;6.60;99.90;;;;;;5087220;28;20662;-67
2023/02/07 08:13:00;;;;;;;15.02;11.05;;;7.00;99.90;;;;;;5094776;28;20081;-67
2023/02/07 08:15:25;;;;;;;13.38;11.15;;;6.90;99.90;;;;;;5092067;28;20032;-67
2023/02/07 08:17:51;;;;;;;14.45;11.02;;;7.20;99.90;;;;;;5075382;28;20032;-67
2023/02/07 08:20:16;;;;;;;15.10;11.60;;;7.10;99.90;;;;;;5087137;28;20036;-68
2023/02/07 08:22:42;;;;;;;14.38;10.60;;;7.50;99.90;;;;;;5086726;28;20394;-68
2023/02/07 08:25:08;;;;;;;11.85;9.50;;;7.70;99.90;;;;;;5091276;28;20024;-68
2023/02/07 08:27:34;;;;;;;15.43;10.50;;;8.10;99.90;;;;;;5082980;28;20128;-67
2023/02/07 08:29:59;;;;;;;14.23;9.50;;;7.60;99.90;;;;;;5085538;28;20020;-67
2023/02/07 08:32:25;;;;;;;11.95;9.25;;;7.20;99.90;;;;;;5089651;28;20482;-68
2023/02/07 08:34:51;;;;;;;11.95;9.70;;;7.00;99.90;;;;;;5089845;28;20027;-67
2023/02/07 08:37:16;;;;;;;13.55;9.93;;;7.10;99.90;;;;;;5092262;28;20184;-67
2023/02/07 08:39:42;;;;;;;12.43;10.07;;;7.20;99.90;;;;;;5091445;28;20105;-68
2023/02/07 08:42:08;;;;;;;11.32;9.38;;;7.60;99.90;;;;;;5091992;28;20058;-67
2023/02/07 08:44:35;;;;;;;15.65;10.50;;;7.20;99.90;;;;;;5094808;28;20032;-66
2023/02/07 08:47:00;;;;;;;17.10;10.35;;;7.10;99.90;;;;;;5090413;28;20490;-66
2023/02/07 08:49:26;;;;;;;14.50;10.35;;;7.20;99.90;;;;;;5092388;28;20103;-66
2023/02/07 08:51:51;;;;;;;13.85;10.52;;;7.50;99.90;;;;;;5092267;28;20114;-66
2023/02/07 08:54:17;;;;;;;14.10;10.98;;;7.40;99.90;;;;;;5094114;28;20027;-67
2023/02/07 08:56:43;;;;;;;14.45;10.05;;;7.50;99.90;;;;;;5086442;28;20032;-67
2023/02/07 08:59:09;;;;;;;12.82;10.07;;;7.90;99.90;;;;;;5091386;28;20039;-67
2023/02/07 09:01:35;;;;;;;16.40;10.85;;;7.70;99.90;;;;;;5092116;28;20526;-67
2023/02/07 09:04:01;;;;;;;12.57;10.20;;;7.90;99.90;;;;;;5094022;28;20155;-66
2023/02/07 09:06:27;;;;;;;13.05;10.95;;;8.20;99.90;;;;;;5091164;28;20040;-67
2023/02/07 09:08:52;;;;;;;13.63;10.30;;;7.80;99.90;;;;;;5087959;28;20115;-66
2023/02/07 09:11:18;;;;;;;13.73;10.35;;;8.10;99.90;;;;;;5091121;28;20056;-66
2023/02/07 09:13:45;;;;;;;16.60;10.65;;;8.10;99.90;;;;;;5094165;28;20377;-67
2023/02/07 09:16:12;;;;;;;11.07;9.60;;;8.80;99.90;;;;;;5089963;28;20109;-66
2023/02/07 09:18:38;;;;;;;13.52;10.18;;;9.00;99.90;;;;;;5091374;28;20027;-67
2023/02/07 09:21:04;;;;;;;13.48;10.50;;;8.80;99.90;;;;;;5092498;28;20028;-67
2023/02/07 09:23:34;;;;;;;14.85;10.63;;;8.80;99.90;;;;;;5096887;28;20417;-68
2023/02/07 09:26:02;;;;;;;14.60;10.45;;;8.40;99.90;;;;;;5086881;28;20528;-67
2023/02/07 09:28:29;;;;;;;13.02;10.27;;;8.80;99.90;;;;;;5089896;28;20102;-67
2023/02/07 09:30:54;;;;;;;12.60;10.13;;;9.10;99.90;;;;;;5094640;28;20031;-67
2023/02/07 09:33:22;;;;;;;14.55;10.60;;;9.00;99.90;;;;;;5092250;28;20393;-66
2023/02/07 09:35:51;;;;;;;12.38;10.23;;;9.10;99.90;;;;;;5083923;28;20031;-68
2023/02/07 09:38:20;;;;;;;12.77;9.45;;;9.00;99.90;;;;;;5090678;28;20044;-68
2023/02/07 09:40:49;;;;;;;14.88;10.82;;;9.80;99.90;;;;;;5094776;28;20028;-68
2023/02/07 09:43:54;;;;;;;12.43;9.93;;;9.30;99.90;;;;;;5087386;28;20036;-68
2023/02/07 09:46:30;;;;;;;12.07;9.45;;;9.40;99.90;;;;;;5087117;28;20521;-67
2023/02/07 09:49:25;;;;;;;10.88;9.07;;;9.50;99.90;;;;;;5088472;28;20735;-67
2023/02/07 09:51:52;;;;;;;11.50;8.98;;;9.50;99.90;;;;;;5078371;28;20027;-69
2023/02/07 09:54:40;;;;;;;11.48;9.07;;;9.50;99.90;;;;;;5077447;28;20033;-68
2023/02/07 09:57:15;;;;;;;11.20;9.68;;;9.50;99.90;;;;;;5085807;28;20623;-68
2023/02/07 10:00:00;;;;;;;11.82;8.45;;;9.40;99.90;;;;;;5089943;28;20038;-67
2023/02/07 10:02:34;;;;;;;10.73;8.57;;;9.50;99.90;;;;;;5089557;28;20435;-68
2023/02/07 10:05:06;;;;;;;10.98;9.25;;;10.30;99.90;;;;;;5095526;28;20132;-68
2023/02/07 10:07:32;;;;;;;10.23;8.90;;;9.90;99.90;;;;;;5088311;28;20118;-67
2023/02/07 10:09:57;;;;;;;14.88;9.82;;;9.20;99.90;;;;;;5093525;28;20565;-66
2023/02/07 10:12:48;;;;;;;12.40;10.13;;;9.10;99.90;;;;;;5091412;28;20144;-66
2023/02/07 10:15:40;;;;;;;11.45;8.93;;;9.00;99.90;;;;;;5084334;28;20024;-67
2023/02/07 10:18:36;;;;;;;11.45;9.65;;;8.70;99.90;;;;;;5080116;28;20463;-66
2023/02/07 10:24:08;;;;;;;9.77;8.65;;;9.70;99.90;;;;;;5055452;28;20813;-66
2023/02/07 10:26:39;;;;;;;8.85;7.82;;;10.60;99.90;;;;;;5057475;28;20105;-66
2023/02/07 10:29:38;;;;;;;9.88;7.70;;;12.00;99.90;;;;;;5061889;28;20075;-66
2023/02/07 10:32:14;;;;;;;9.38;7.97;;;11.00;99.90;;;;;;5046779;28;20025;-66
2023/02/07 10:34:46;;;;;;;19.05;14.25;;;11.30;99.90;;;;;;5043168;28;20395;-67
2023/02/07 10:37:18;;;;;;;9.30;7.70;;;11.30;99.90;;;;;;5043612;28;20029;-67
2023/02/07 10:39:53;;;;;;;10.65;7.93;;;11.10;99.90;;;;;;5048231;28;20025;-66
2023/02/07 10:42:19;;;;;;;9.52;6.68;;;10.70;99.90;;;;;;5045438;28;20022;-66
2023/02/07 10:44:44;;;;;;;8.00;6.60;;;10.30;99.90;;;;;;5051792;28;20025;-66
2023/02/07 10:47:15;;;;;;;7.35;6.65;;;10.60;99.90;;;;;;5043162;28;20052;-69
2023/02/07 10:49:45;;;;;;;12.05;7.05;;;10.60;99.90;;;;;;5053537;28;20017;-67
2023/02/07 10:52:41;;;;;;;8.90;6.75;;;10.80;99.90;;;;;;5055660;28;20036;-66
2023/02/07 10:55:08;;;;;;;7.78;6.65;;;10.40;99.90;;;;;;5052960;28;20048;-66
2023/02/07 10:57:34;;;;;;;7.03;6.32;;;10.80;99.90;;;;;;5058034;28;20092;-67
2023/02/07 11:00:16;;;;;;;7.05;6.15;;;11.00;99.90;;;;;;5050682;28;20037;-67
2023/02/07 11:02:48;;;;;;;7.18;6.35;;;10.40;99.90;;;;;;5044506;28;20083;-66
2023/02/07 11:08:05;;;;;;;5.35;4.80;;;10.40;99.90;;;;;;5085144;28;20178;-66
2023/02/07 11:10:35;;;;;;;6.93;6.18;;;11.10;99.90;;;;;;5083664;28;20027;-65
2023/02/07 11:13:03;;;;;;;8.82;6.60;;;10.90;99.90;;;;;;5072092;28;20532;-63
2023/02/07 11:15:36;;;;;;;7.50;6.30;;;11.00;99.90;;;;;;5071027;28;20467;-66
2023/02/07 11:18:02;;;;;;;8.18;6.45;;;10.90;99.90;;;;;;5063997;28;20467;-66
2023/02/07 11:20:32;;;;;;;7.72;6.38;;;11.00;99.40;;;;;;5067192;28;20483;-66
2023/02/07 11:22:59;;;;;;;7.53;6.38;;;10.80;99.90;;;;;;5067744;28;20048;-66
2023/02/07 11:25:29;;;;;;;7.70;6.80;;;9.50;99.90;;;;;;5055474;28;20479;-66
2023/02/07 11:27:55;;;;;;;10.13;7.93;;;10.20;99.90;;;;;;5062901;28;20430;-66
2023/02/07 11:30:21;;;;;;;9.20;6.60;;;10.50;99.90;;;;;;5073586;28;20032;-66
2023/02/07 11:33:08;;;;;;;7.90;6.88;;;9.80;99.90;;;;;;5078117;28;20020;-66
2023/02/07 11:35:34;;;;;;;10.48;6.40;;;9.90;99.90;;;;;;5059234;28;20026;-67
2023/02/07 11:38:03;;;;;;;7.40;6.43;;;9.90;99.90;;;;;;5068017;28;20025;-66
2023/02/07 11:40:36;;;;;;;9.93;6.68;;;9.40;99.90;;;;;;5068512;28;20028;-67
2023/02/07 11:45:54;;;;;;;10.50;8.00;;;9.00;99.90;;;;;;5083691;28;20455;-65
2023/02/07 11:48:25;;;;;;;9.63;8.48;;;7.70;99.90;;;;;;5088334;28;20424;-66
2023/02/07 11:50:54;;;;;;;9.82;8.27;;;7.50;99.90;;;;;;5082829;28;20107;-66
2023/02/07 11:53:26;;;;;;;11.63;8.73;;;7.40;99.90;;;;;;5095586;28;20024;-65
2023/02/07 11:55:54;;;;;;;9.35;7.85;;;7.30;99.90;;;;;;5060319;28;20039;-66
2023/02/07 11:58:45;;;;;;;11.68;8.20;;;7.30;99.90;;;;;;5093577;28;20057;-65
2023/02/07 12:01:17;;;;;;;12.07;8.73;;;7.20;99.90;;;;;;5077341;28;20459;-66
2023/02/07 12:04:08;;;;;;;12.18;8.98;;;6.60;99.90;;;;;;5067267;28;20050;-65
2023/02/07 12:06:51;;;;;;;12.93;9.65;;;6.50;99.90;;;;;;5081367;28;20021;-66
2023/02/07 12:09:32;;;;;;;10.05;7.90;;;6.80;99.90;;;;;;5089237;28;20016;-66
2023/02/07 12:12:02;;;;;;;12.07;8.20;;;6.30;99.90;;;;;;5087178;28;20024;-66
2023/02/07 12:14:38;;;;;;;10.95;8.65;;;6.70;99.90;;;;;;5082263;28;20525;-66
2023/02/07 12:17:12;;;;;;;9.95;7.95;;;6.80;99.90;;;;;;5072341;28;20031;-65
2023/02/07 12:20:02;;;;;;;11.27;7.75;;;6.80;99.90;;;;;;5088946;28;20093;-65
2023/02/07 12:22:33;;;;;;;9.77;8.00;;;6.70;99.90;;;;;;5084910;28;20397;-65
2023/02/07 12:25:08;;;;;;;13.00;8.20;;;6.60;99.90;;;;;;5079027;28;20064;-66
2023/02/07 12:27:38;;;;;;;10.52;7.43;;;6.80;99.90;;;;;;5085981;28;20062;-66
2023/02/07 12:30:19;;;;;;;11.02;8.02;;;6.80;99.90;;;;;;5086052;28;20497;-65
2023/02/07 12:33:00;;;;;;;12.35;8.13;;;6.60;99.90;;;;;;5086493;28;20020;-66
2023/02/07 12:35:34;;;;;;;9.45;7.03;;;6.60;99.90;;;;;;5084087;28;20024;-66
2023/02/07 12:38:23;;;;;;;11.50;7.45;;;6.50;99.90;;;;;;5082706;28;20047;-65
2023/02/07 12:41:02;;;;;;;10.55;7.93;;;6.70;99.90;;;;;;5086385;28;20024;-66
2023/02/07 12:43:32;;;;;;;8.70;7.45;;;6.70;99.90;;;;;;5069035;28;20039;-66
2023/02/07 12:49:10;;;;;;;9.55;6.80;;;6.80;99.90;;;;;;5073201;27;20470;-67
2023/02/07 12:51:54;;;;;;;10.98;8.15;;;6.60;99.90;;;;;;5047524;28;20045;-66
2023/02/07 12:57:27;;;;;;;11.45;8.15;;;6.20;99.90;;;;;;5092956;27;20755;-66
2023/02/07 13:00:11;;;;;;;9.60;7.55;;;6.30;99.90;;;;;;5101060;28;20032;-66
2023/02/07 13:03:00;;;;;;;12.40;8.95;;;6.00;99.90;;;;;;5100221;28;20474;-66
2023/02/07 13:06:05;;;;;;;10.43;8.15;;;5.90;99.90;;;;;;5087771;28;20059;-66
2023/02/07 13:08:58;;;;;;;11.30;8.18;;;6.20;99.90;;;;;;5072406;28;20036;-66
2023/02/07 13:11:55;;;;;;;11.55;8.30;;;6.40;99.90;;;;;;5108580;28;20024;-66
2023/02/07 13:14:52;;;;;;;12.05;8.98;;;6.30;99.90;;;;;;5104499;28;20107;-66
2023/02/07 13:17:32;;;;;;;14.25;9.00;;;6.20;99.90;;;;;;5091913;28;20037;-66